RYR908G LIMC-LIBP
Flight info
| Callsign | RYR908G |
|---|---|
| Flight time | N/A |
| Altitude | 33000 |
| Route | VAKON DCT IBUPU DCT NISIL DCT LUMAV DCT GIPUK DCT MASEG DCT LAPVO Y579 INKIM |
| Aircraft | B38M/M-SDE1FGHILORVWXY/HB1 |
Departure
| Time | 2026-05-06 18:08 |
|---|---|
| Airport | Milan Malpensa International Airport (LIMC) |
Arrival
| Time | N/A |
|---|---|
| Airport | Abruzzo Airport (LIBP) |
| Time | Latitude | Longitude | Altitude | Speed | Heading |
|---|---|---|---|---|---|
| 2026-05-06 17:50 | 45.62534 | 8.71961 | 733 ft | 0 kts | 80° |
| 2026-05-06 17:59 | 45.62538 | 8.71989 | 733 ft | 5 kts | 79° |
| 2026-05-06 17:59 | 45.62537 | 8.72047 | 734 ft | 5 kts | 114° |
| 2026-05-06 17:59 | 45.62483 | 8.72081 | 733 ft | 15 kts | 168° |
| 2026-05-06 18:00 | 45.62346 | 8.72118 | 730 ft | 25 kts | 169° |
| 2026-05-06 18:00 | 45.62159 | 8.72168 | 729 ft | 29 kts | 169° |
| 2026-05-06 18:00 | 45.61942 | 8.72227 | 724 ft | 34 kts | 169° |
| 2026-05-06 18:00 | 45.61688 | 8.72298 | 720 ft | 40 kts | 169° |
| 2026-05-06 18:01 | 45.61422 | 8.72365 | 712 ft | 23 kts | 186° |
| 2026-05-06 18:01 | 45.61378 | 8.72302 | 713 ft | 5 kts | 268° |
| 2026-05-06 18:01 | 45.61371 | 8.72228 | 716 ft | 11 kts | 244° |
| 2026-05-06 18:01 | 45.61273 | 8.72214 | 714 ft | 20 kts | 169° |
| 2026-05-06 18:02 | 45.61101 | 8.72261 | 706 ft | 30 kts | 169° |
| 2026-05-06 18:02 | 45.60868 | 8.72327 | 702 ft | 38 kts | 168° |
| 2026-05-06 18:02 | 45.60660 | 8.72425 | 699 ft | 27 kts | 128° |
| 2026-05-06 18:02 | 45.60627 | 8.72661 | 697 ft | 23 kts | 96° |
| 2026-05-06 18:03 | 45.60610 | 8.72890 | 695 ft | 23 kts | 96° |
| 2026-05-06 18:03 | 45.60593 | 8.73125 | 698 ft | 24 kts | 95° |
| 2026-05-06 18:03 | 45.60678 | 8.73299 | 700 ft | 23 kts | 22° |
| 2026-05-06 18:03 | 45.60824 | 8.73382 | 701 ft | 22 kts | 22° |
| 2026-05-06 18:04 | 45.60960 | 8.73393 | 697 ft | 19 kts | 349° |
| 2026-05-06 18:04 | 45.61086 | 8.73358 | 703 ft | 18 kts | 349° |
| 2026-05-06 18:04 | 45.61213 | 8.73322 | 704 ft | 19 kts | 349° |
| 2026-05-06 18:04 | 45.61344 | 8.73288 | 699 ft | 19 kts | 350° |
| 2026-05-06 18:05 | 45.61472 | 8.73248 | 708 ft | 18 kts | 350° |
| 2026-05-06 18:05 | 45.61593 | 8.73222 | 714 ft | 15 kts | 4° |
| 2026-05-06 18:05 | 45.61622 | 8.73273 | 715 ft | 6 kts | 72° |
| 2026-05-06 18:05 | 45.61631 | 8.73351 | 709 ft | 11 kts | 81° |
| 2026-05-06 18:06 | 45.61621 | 8.73465 | 706 ft | 12 kts | 119° |
| 2026-05-06 18:06 | 45.61588 | 8.73602 | 706 ft | 17 kts | 85° |
| 2026-05-06 18:06 | 45.61660 | 8.73724 | 701 ft | 15 kts | 1° |
| 2026-05-06 18:06 | 45.61695 | 8.73716 | 704 ft | 17 kts | 350° |
| 2026-05-06 18:07 | 45.62043 | 8.73623 | 719 ft | 83 kts | 350° |
| 2026-05-06 18:07 | 45.62780 | 8.73418 | 730 ft | 129 kts | 349° |
| 2026-05-06 18:07 | 45.63757 | 8.73150 | 844 ft | 149 kts | 350° |
| 2026-05-06 18:07 | 45.64798 | 8.72919 | 1157 ft | 161 kts | 354° |
| 2026-05-06 18:08 | 45.66044 | 8.72798 | 1216 ft | 178 kts | 0° |
| 2026-05-06 18:08 | 45.67223 | 8.72826 | 1666 ft | 173 kts | 3° |
| 2026-05-06 18:08 | 45.68496 | 8.72831 | 2101 ft | 192 kts | 0° |
| 2026-05-06 18:08 | 45.69850 | 8.72729 | 2537 ft | 198 kts | 358° |
| 2026-05-06 18:09 | 45.71218 | 8.72627 | 2901 ft | 198 kts | 3° |
| 2026-05-06 18:09 | 45.72448 | 8.73431 | 3055 ft | 189 kts | 49° |
| 2026-05-06 18:09 | 45.73117 | 8.74972 | 3538 ft | 181 kts | 66° |
| 2026-05-06 18:09 | 45.73646 | 8.76613 | 3918 ft | 180 kts | 67° |
| 2026-05-06 18:10 | 45.74161 | 8.78214 | 4391 ft | 174 kts | 66° |
| 2026-05-06 18:10 | 45.74564 | 8.79816 | 4830 ft | 169 kts | 93° |
| 2026-05-06 18:10 | 45.74316 | 8.81403 | 5179 ft | 165 kts | 110° |
| 2026-05-06 18:10 | 45.73938 | 8.82977 | 5472 ft | 169 kts | 111° |
| 2026-05-06 18:11 | 45.73517 | 8.84571 | 5778 ft | 171 kts | 122° |
| 2026-05-06 18:11 | 45.72820 | 8.85951 | 6011 ft | 178 kts | 128° |
| 2026-05-06 18:11 | 45.72052 | 8.87462 | 6063 ft | 196 kts | 128° |
| 2026-05-06 18:11 | 45.71220 | 8.89110 | 6114 ft | 211 kts | 128° |
| 2026-05-06 18:12 | 45.70321 | 8.90884 | 6121 ft | 234 kts | 128° |
| 2026-05-06 18:12 | 45.69307 | 8.92882 | 6235 ft | 261 kts | 127° |
| 2026-05-06 18:12 | 45.68213 | 8.95041 | 6683 ft | 273 kts | 127° |
| 2026-05-06 18:12 | 45.67097 | 8.97240 | 7251 ft | 279 kts | 128° |
| 2026-05-06 18:13 | 45.65932 | 8.99534 | 7883 ft | 283 kts | 128° |
| 2026-05-06 18:13 | 45.64809 | 9.01828 | 8509 ft | 288 kts | 120° |
| 2026-05-06 18:13 | 45.64149 | 9.04554 | 9179 ft | 293 kts | 108° |
| 2026-05-06 18:13 | 45.63654 | 9.07394 | 9819 ft | 297 kts | 107° |
| 2026-05-06 18:14 | 45.63165 | 9.10291 | 10331 ft | 304 kts | 107° |
| 2026-05-06 18:14 | 45.62635 | 9.13281 | 10677 ft | 317 kts | 107° |
| 2026-05-06 18:14 | 45.62072 | 9.16400 | 10943 ft | 332 kts | 107° |
| 2026-05-06 18:14 | 45.61487 | 9.19674 | 11152 ft | 349 kts | 107° |
| 2026-05-06 18:15 | 45.60875 | 9.23130 | 11345 ft | 365 kts | 107° |
| 2026-05-06 18:15 | 45.60241 | 9.26699 | 11721 ft | 375 kts | 107° |
| 2026-05-06 18:15 | 45.59588 | 9.30347 | 12202 ft | 382 kts | 107° |
| 2026-05-06 18:15 | 45.58923 | 9.34049 | 12733 ft | 387 kts | 107° |
| 2026-05-06 18:16 | 45.58251 | 9.37791 | 13449 ft | 392 kts | 107° |
| 2026-05-06 18:16 | 45.57572 | 9.41566 | 13972 ft | 396 kts | 107° |
| 2026-05-06 18:16 | 45.56880 | 9.45402 | 14473 ft | 400 kts | 107° |
| 2026-05-06 18:16 | 45.56181 | 9.49265 | 14973 ft | 403 kts | 108° |
| 2026-05-06 18:17 | 45.55557 | 9.53127 | 15467 ft | 407 kts | 105° |
| 2026-05-06 18:17 | 45.54913 | 9.57087 | 15969 ft | 410 kts | 107° |
| 2026-05-06 18:17 | 45.54227 | 9.61053 | 16468 ft | 414 kts | 107° |
| 2026-05-06 18:17 | 45.53563 | 9.65071 | 16957 ft | 417 kts | 106° |
| 2026-05-06 18:18 | 45.52918 | 9.69125 | 17424 ft | 421 kts | 106° |
| 2026-05-06 18:18 | 45.52255 | 9.73208 | 17749 ft | 424 kts | 107° |
| 2026-05-06 18:18 | 45.51572 | 9.77302 | 18204 ft | 427 kts | 107° |
| 2026-05-06 18:18 | 45.50883 | 9.81444 | 18578 ft | 431 kts | 107° |
| 2026-05-06 18:19 | 45.50193 | 9.85632 | 18955 ft | 436 kts | 107° |
| 2026-05-06 18:19 | 45.49496 | 9.89860 | 19343 ft | 440 kts | 107° |
| 2026-05-06 18:19 | 45.48787 | 9.94115 | 19709 ft | 443 kts | 108° |
| 2026-05-06 18:19 | 45.48042 | 9.98382 | 20097 ft | 444 kts | 112° |
| 2026-05-06 18:20 | 45.46835 | 10.02408 | 20480 ft | 439 kts | 124° |
| 2026-05-06 18:20 | 45.45318 | 10.06203 | 20871 ft | 441 kts | 126° |
| 2026-05-06 18:20 | 45.43771 | 10.09996 | 21253 ft | 445 kts | 126° |
| 2026-05-06 18:20 | 45.42232 | 10.13782 | 21607 ft | 448 kts | 126° |
| 2026-05-06 18:21 | 45.40677 | 10.17641 | 22020 ft | 450 kts | 126° |
| 2026-05-06 18:21 | 45.39109 | 10.21522 | 22421 ft | 453 kts | 127° |
| 2026-05-06 18:21 | 45.37528 | 10.25409 | 22820 ft | 455 kts | 127° |
| 2026-05-06 18:21 | 45.35931 | 10.29325 | 23219 ft | 458 kts | 127° |
| 2026-05-06 18:22 | 45.34334 | 10.33250 | 23603 ft | 461 kts | 127° |
| 2026-05-06 18:22 | 45.33269 | 10.35867 | 23816 ft | 462 kts | 127° |
| 2026-05-06 18:22 | 45.31649 | 10.39839 | 24139 ft | 465 kts | 127° |
| 2026-05-06 18:22 | 45.30023 | 10.43813 | 24469 ft | 467 kts | 127° |
| 2026-05-06 18:23 | 45.28387 | 10.47805 | 24741 ft | 469 kts | 127° |
| 2026-05-06 18:23 | 45.26745 | 10.51814 | 25070 ft | 471 kts | 127° |
| 2026-05-06 18:23 | 45.25092 | 10.55846 | 25404 ft | 473 kts | 127° |
| 2026-05-06 18:23 | 45.23429 | 10.59891 | 25719 ft | 475 kts | 127° |
| 2026-05-06 18:24 | 45.21757 | 10.63948 | 26039 ft | 477 kts | 127° |
| 2026-05-06 18:24 | 45.20082 | 10.68011 | 26382 ft | 478 kts | 127° |
| 2026-05-06 18:24 | 45.18406 | 10.72075 | 26866 ft | 476 kts | 128° |
| 2026-05-06 18:24 | 45.16738 | 10.76116 | 27392 ft | 473 kts | 128° |
| 2026-05-06 18:25 | 45.15082 | 10.80118 | 27930 ft | 469 kts | 128° |
| 2026-05-06 18:25 | 45.13455 | 10.84045 | 28409 ft | 466 kts | 128° |
| 2026-05-06 18:25 | 45.11815 | 10.87999 | 28892 ft | 464 kts | 129° |
| 2026-05-06 18:25 | 45.10184 | 10.91924 | 29338 ft | 462 kts | 129° |
| 2026-05-06 18:26 | 45.08555 | 10.95840 | 29748 ft | 461 kts | 129° |
| 2026-05-06 18:26 | 45.06927 | 10.99748 | 30109 ft | 460 kts | 129° |
| 2026-05-06 18:26 | 45.05300 | 11.03649 | 30411 ft | 460 kts | 129° |
| 2026-05-06 18:26 | 45.03753 | 11.07354 | 30661 ft | 460 kts | 129° |
| 2026-05-06 18:27 | 45.02118 | 11.11261 | 30931 ft | 460 kts | 129° |
| 2026-05-06 18:27 | 45.00485 | 11.15161 | 31192 ft | 461 kts | 129° |
| 2026-05-06 18:27 | 44.98856 | 11.19048 | 31530 ft | 459 kts | 129° |
| 2026-05-06 18:27 | 44.97235 | 11.22938 | 31871 ft | 459 kts | 129° |
| 2026-05-06 18:28 | 44.95656 | 11.26858 | 32190 ft | 459 kts | 128° |
| 2026-05-06 18:28 | 44.94110 | 11.30729 | 32503 ft | 458 kts | 128° |
| 2026-05-06 18:28 | 44.92503 | 11.34669 | 32807 ft | 456 kts | 129° |
| 2026-05-06 18:28 | 44.90933 | 11.38480 | 32891 ft | 454 kts | 129° |
| 2026-05-06 18:29 | 44.87805 | 11.46150 | 32901 ft | 449 kts | 129° |
| 2026-05-06 18:29 | 44.84683 | 11.53756 | 32898 ft | 448 kts | 129° |
| 2026-05-06 18:30 | 44.81530 | 11.61315 | 32908 ft | 442 kts | 135° |
| 2026-05-06 18:30 | 44.77536 | 11.67740 | 32919 ft | 436 kts | 141° |
| 2026-05-06 18:31 | 44.73457 | 11.74068 | 32918 ft | 437 kts | 141° |
| 2026-05-06 18:31 | 44.69374 | 11.80420 | 32878 ft | 437 kts | 140° |
| 2026-05-06 18:32 | 44.65300 | 11.86718 | 32912 ft | 437 kts | 141° |
| 2026-05-06 18:32 | 44.61213 | 11.93042 | 32912 ft | 437 kts | 141° |
| 2026-05-06 18:33 | 44.57123 | 11.99355 | 32913 ft | 437 kts | 140° |
| 2026-05-06 18:33 | 44.53072 | 12.05729 | 32916 ft | 436 kts | 141° |
| 2026-05-06 18:34 | 44.49022 | 12.12017 | 32916 ft | 437 kts | 140° |
| 2026-05-06 18:34 | 44.44940 | 12.18374 | 32913 ft | 438 kts | 140° |
| 2026-05-06 18:35 | 44.40853 | 12.24711 | 32912 ft | 438 kts | 140° |
| 2026-05-06 18:35 | 44.36764 | 12.31040 | 32914 ft | 438 kts | 140° |
| 2026-05-06 18:36 | 44.32669 | 12.37367 | 32919 ft | 438 kts | 141° |
| 2026-05-06 18:36 | 44.28579 | 12.43667 | 32912 ft | 440 kts | 140° |
| 2026-05-06 18:37 | 44.24502 | 12.49938 | 32914 ft | 439 kts | 140° |
| 2026-05-06 18:37 | 44.20396 | 12.56235 | 32912 ft | 439 kts | 141° |
| 2026-05-06 18:38 | 44.16290 | 12.62520 | 32917 ft | 439 kts | 141° |
| 2026-05-06 18:38 | 44.12179 | 12.68799 | 32915 ft | 438 kts | 141° |
| 2026-05-06 18:39 | 44.08069 | 12.75062 | 32910 ft | 438 kts | 141° |
| 2026-05-06 18:40 | 44.01870 | 12.84481 | 32914 ft | 440 kts | 140° |
| 2026-05-06 18:40 | 43.97736 | 12.90749 | 32912 ft | 440 kts | 140° |
| 2026-05-06 18:41 | 43.93603 | 12.96996 | 32913 ft | 440 kts | 140° |
| 2026-05-06 18:41 | 43.89482 | 13.03215 | 32914 ft | 440 kts | 140° |